sensor_id;sensor_type;location;lat;lon;timestamp;P1;durP1;ratioP1;P2;durP2;ratioP2
53072;SDS011;38955;48.916;2.336;2024-01-10T00:00:08;35.28;;;23.08;;
53072;SDS011;38955;48.916;2.336;2024-01-10T00:02:11;36.08;;;22.02;;
53072;SDS011;38955;48.916;2.336;2024-01-10T00:04:13;41.95;;;23.98;;
53072;SDS011;38955;48.916;2.336;2024-01-10T00:06:18;38.47;;;23.15;;
53072;SDS011;38955;48.916;2.336;2024-01-10T00:08:22;37.55;;;24.38;;
53072;SDS011;38955;48.916;2.336;2024-01-10T00:10:24;38.63;;;24.65;;
53072;SDS011;38955;48.916;2.336;2024-01-10T00:12:26;38.55;;;23.25;;
53072;SDS011;38955;48.916;2.336;2024-01-10T00:14:29;35.35;;;22.80;;
53072;SDS011;38955;48.916;2.336;2024-01-10T00:16:31;37.42;;;23.05;;
53072;SDS011;38955;48.916;2.336;2024-01-10T00:18:33;39.50;;;23.42;;
53072;SDS011;38955;48.916;2.336;2024-01-10T00:20:35;38.15;;;24.20;;
53072;SDS011;38955;48.916;2.336;2024-01-10T00:22:37;38.83;;;24.48;;
53072;SDS011;38955;48.916;2.336;2024-01-10T00:24:41;41.10;;;23.17;;
53072;SDS011;38955;48.916;2.336;2024-01-10T00:26:43;40.15;;;23.73;;
53072;SDS011;38955;48.916;2.336;2024-01-10T00:28:45;36.40;;;22.95;;
53072;SDS011;38955;48.916;2.336;2024-01-10T00:30:47;38.03;;;24.25;;
53072;SDS011;38955;48.916;2.336;2024-01-10T00:32:50;38.50;;;23.90;;
53072;SDS011;38955;48.916;2.336;2024-01-10T00:34:52;37.78;;;22.80;;
53072;SDS011;38955;48.916;2.336;2024-01-10T00:36:54;42.08;;;23.77;;
53072;SDS011;38955;48.916;2.336;2024-01-10T00:38:56;40.30;;;23.88;;
53072;SDS011;38955;48.916;2.336;2024-01-10T00:41:00;39.15;;;23.73;;
53072;SDS011;38955;48.916;2.336;2024-01-10T00:43:02;32.33;;;21.17;;
53072;SDS011;38955;48.916;2.336;2024-01-10T00:45:05;34.60;;;23.15;;
53072;SDS011;38955;48.916;2.336;2024-01-10T00:47:09;37.63;;;23.33;;
53072;SDS011;38955;48.916;2.336;2024-01-10T00:49:12;37.95;;;24.42;;
53072;SDS011;38955;48.916;2.336;2024-01-10T00:51:15;38.72;;;23.23;;
53072;SDS011;38955;48.916;2.336;2024-01-10T00:53:17;37.58;;;23.42;;
53072;SDS011;38955;48.916;2.336;2024-01-10T00:55:20;36.63;;;24.50;;
53072;SDS011;38955;48.916;2.336;2024-01-10T00:57:23;34.53;;;23.65;;
53072;SDS011;38955;48.916;2.336;2024-01-10T00:59:25;39.03;;;23.17;;
53072;SDS011;38955;48.916;2.336;2024-01-10T01:01:27;35.45;;;21.25;;
53072;SDS011;38955;48.916;2.336;2024-01-10T01:03:29;44.67;;;24.55;;
53072;SDS011;38955;48.916;2.336;2024-01-10T01:05:32;34.70;;;22.98;;
53072;SDS011;38955;48.916;2.336;2024-01-10T01:07:34;37.80;;;22.95;;
53072;SDS011;38955;48.916;2.336;2024-01-10T01:09:37;34.10;;;23.05;;
53072;SDS011;38955;48.916;2.336;2024-01-10T01:11:39;37.97;;;23.15;;
53072;SDS011;38955;48.916;2.336;2024-01-10T01:13:42;37.50;;;23.35;;
53072;SDS011;38955;48.916;2.336;2024-01-10T01:15:44;34.65;;;23.27;;
53072;SDS011;38955;48.916;2.336;2024-01-10T01:17:46;34.35;;;22.55;;
53072;SDS011;38955;48.916;2.336;2024-01-10T01:19:48;34.33;;;22.02;;
53072;SDS011;38955;48.916;2.336;2024-01-10T01:21:50;36.65;;;22.88;;
53072;SDS011;38955;48.916;2.336;2024-01-10T01:23:53;35.08;;;22.35;;
53072;SDS011;38955;48.916;2.336;2024-01-10T01:25:55;37.30;;;22.38;;
53072;SDS011;38955;48.916;2.336;2024-01-10T01:27:58;40.30;;;23.45;;
53072;SDS011;38955;48.916;2.336;2024-01-10T01:30:01;35.15;;;23.73;;
53072;SDS011;38955;48.916;2.336;2024-01-10T01:32:03;36.47;;;23.52;;
53072;SDS011;38955;48.916;2.336;2024-01-10T01:34:06;36.35;;;23.58;;
53072;SDS011;38955;48.916;2.336;2024-01-10T01:36:08;35.10;;;22.63;;
53072;SDS011;38955;48.916;2.336;2024-01-10T01:38:10;37.15;;;22.30;;
53072;SDS011;38955;48.916;2.336;2024-01-10T01:40:12;34.38;;;22.98;;
53072;SDS011;38955;48.916;2.336;2024-01-10T01:42:15;38.83;;;24.25;;
53072;SDS011;38955;48.916;2.336;2024-01-10T01:44:17;43.72;;;24.95;;
53072;SDS011;38955;48.916;2.336;2024-01-10T01:46:21;35.65;;;24.33;;
53072;SDS011;38955;48.916;2.336;2024-01-10T01:48:24;36.88;;;23.20;;
53072;SDS011;38955;48.916;2.336;2024-01-10T01:50:27;31.53;;;18.83;;
53072;SDS011;38955;48.916;2.336;2024-01-10T01:52:29;35.40;;;22.75;;
53072;SDS011;38955;48.916;2.336;2024-01-10T01:54:32;32.92;;;21.85;;
53072;SDS011;38955;48.916;2.336;2024-01-10T01:56:35;39.50;;;25.05;;
53072;SDS011;38955;48.916;2.336;2024-01-10T01:58:37;33.65;;;22.48;;
53072;SDS011;38955;48.916;2.336;2024-01-10T02:00:41;33.60;;;22.43;;
53072;SDS011;38955;48.916;2.336;2024-01-10T02:02:46;37.08;;;23.98;;
53072;SDS011;38955;48.916;2.336;2024-01-10T02:04:50;38.55;;;23.77;;
53072;SDS011;38955;48.916;2.336;2024-01-10T02:06:53;33.97;;;22.48;;
53072;SDS011;38955;48.916;2.336;2024-01-10T02:08:55;38.53;;;23.88;;
53072;SDS011;38955;48.916;2.336;2024-01-10T02:10:57;37.67;;;23.35;;
53072;SDS011;38955;48.916;2.336;2024-01-10T02:13:00;39.13;;;23.33;;
53072;SDS011;38955;48.916;2.336;2024-01-10T02:15:03;34.60;;;22.67;;
53072;SDS011;38955;48.916;2.336;2024-01-10T02:17:06;37.42;;;23.65;;
53072;SDS011;38955;48.916;2.336;2024-01-10T02:19:19;38.15;;;23.55;;
53072;SDS011;38955;48.916;2.336;2024-01-10T02:21:22;34.17;;;21.70;;
53072;SDS011;38955;48.916;2.336;2024-01-10T02:23:24;36.33;;;23.08;;
53072;SDS011;38955;48.916;2.336;2024-01-10T02:25:27;37.10;;;23.38;;
53072;SDS011;38955;48.916;2.336;2024-01-10T02:27:30;36.67;;;23.02;;
53072;SDS011;38955;48.916;2.336;2024-01-10T02:29:33;35.22;;;22.70;;
53072;SDS011;38955;48.916;2.336;2024-01-10T02:31:36;38.92;;;23.67;;
53072;SDS011;38955;48.916;2.336;2024-01-10T02:33:38;37.47;;;24.23;;
53072;SDS011;38955;48.916;2.336;2024-01-10T02:35:40;36.38;;;22.80;;
53072;SDS011;38955;48.916;2.336;2024-01-10T02:37:42;38.33;;;23.40;;
53072;SDS011;38955;48.916;2.336;2024-01-10T02:39:44;36.80;;;23.25;;
53072;SDS011;38955;48.916;2.336;2024-01-10T02:41:48;37.85;;;22.42;;
53072;SDS011;38955;48.916;2.336;2024-01-10T02:43:50;34.88;;;23.05;;
53072;SDS011;38955;48.916;2.336;2024-01-10T02:45:52;39.78;;;23.38;;
53072;SDS011;38955;48.916;2.336;2024-01-10T02:47:54;37.80;;;23.63;;
53072;SDS011;38955;48.916;2.336;2024-01-10T02:49:56;37.58;;;23.10;;
53072;SDS011;38955;48.916;2.336;2024-01-10T02:51:58;35.38;;;23.05;;
53072;SDS011;38955;48.916;2.336;2024-01-10T02:54:01;35.63;;;23.00;;
53072;SDS011;38955;48.916;2.336;2024-01-10T02:56:03;34.72;;;21.98;;
53072;SDS011;38955;48.916;2.336;2024-01-10T02:58:08;35.80;;;22.55;;
53072;SDS011;38955;48.916;2.336;2024-01-10T03:00:10;34.13;;;22.08;;
53072;SDS011;38955;48.916;2.336;2024-01-10T03:02:13;35.97;;;21.65;;
53072;SDS011;38955;48.916;2.336;2024-01-10T03:04:16;35.78;;;22.33;;
53072;SDS011;38955;48.916;2.336;2024-01-10T03:06:18;36.05;;;22.33;;
53072;SDS011;38955;48.916;2.336;2024-01-10T03:08:20;34.28;;;20.90;;
53072;SDS011;38955;48.916;2.336;2024-01-10T03:10:22;35.25;;;22.20;;
53072;SDS011;38955;48.916;2.336;2024-01-10T03:12:24;40.55;;;22.95;;
53072;SDS011;38955;48.916;2.336;2024-01-10T03:14:27;36.97;;;22.42;;
53072;SDS011;38955;48.916;2.336;2024-01-10T03:16:30;31.48;;;21.33;;
53072;SDS011;38955;48.916;2.336;2024-01-10T03:18:32;36.45;;;22.58;;
53072;SDS011;38955;48.916;2.336;2024-01-10T03:20:34;36.33;;;22.08;;
53072;SDS011;38955;48.916;2.336;2024-01-10T03:22:41;32.95;;;22.35;;
53072;SDS011;38955;48.916;2.336;2024-01-10T03:24:43;35.42;;;22.08;;
53072;SDS011;38955;48.916;2.336;2024-01-10T03:26:45;34.50;;;21.35;;
53072;SDS011;38955;48.916;2.336;2024-01-10T03:28:47;36.95;;;21.88;;
53072;SDS011;38955;48.916;2.336;2024-01-10T03:30:51;31.85;;;20.50;;
53072;SDS011;38955;48.916;2.336;2024-01-10T03:32:56;33.78;;;21.88;;
53072;SDS011;38955;48.916;2.336;2024-01-10T03:34:58;41.72;;;21.73;;
53072;SDS011;38955;48.916;2.336;2024-01-10T03:37:00;35.88;;;21.90;;
53072;SDS011;38955;48.916;2.336;2024-01-10T03:39:03;32.97;;;21.70;;
53072;SDS011;38955;48.916;2.336;2024-01-10T03:41:05;38.72;;;22.02;;
53072;SDS011;38955;48.916;2.336;2024-01-10T03:43:08;34.28;;;21.10;;
53072;SDS011;38955;48.916;2.336;2024-01-10T03:45:11;33.55;;;20.17;;
53072;SDS011;38955;48.916;2.336;2024-01-10T03:47:15;40.95;;;23.00;;
53072;SDS011;38955;48.916;2.336;2024-01-10T03:49:17;34.95;;;21.88;;
53072;SDS011;38955;48.916;2.336;2024-01-10T03:51:19;36.83;;;21.52;;
53072;SDS011;38955;48.916;2.336;2024-01-10T03:53:21;33.83;;;21.63;;
53072;SDS011;38955;48.916;2.336;2024-01-10T03:55:23;36.05;;;22.17;;
53072;SDS011;38955;48.916;2.336;2024-01-10T03:57:25;34.25;;;22.20;;
53072;SDS011;38955;48.916;2.336;2024-01-10T03:59:28;33.42;;;21.45;;
53072;SDS011;38955;48.916;2.336;2024-01-10T04:01:30;33.97;;;21.88;;
53072;SDS011;38955;48.916;2.336;2024-01-10T04:03:34;35.03;;;21.38;;
53072;SDS011;38955;48.916;2.336;2024-01-10T04:05:36;28.15;;;16.95;;
53072;SDS011;38955;48.916;2.336;2024-01-10T04:07:39;33.20;;;21.05;;
53072;SDS011;38955;48.916;2.336;2024-01-10T04:09:42;35.53;;;21.08;;
53072;SDS011;38955;48.916;2.336;2024-01-10T04:11:45;32.63;;;20.55;;
53072;SDS011;38955;48.916;2.336;2024-01-10T04:13:47;35.08;;;21.80;;
53072;SDS011;38955;48.916;2.336;2024-01-10T04:15:49;30.95;;;19.25;;
53072;SDS011;38955;48.916;2.336;2024-01-10T04:17:51;32.65;;;21.42;;
53072;SDS011;38955;48.916;2.336;2024-01-10T04:19:55;34.97;;;22.25;;
53072;SDS011;38955;48.916;2.336;2024-01-10T04:21:57;36.97;;;22.73;;
53072;SDS011;38955;48.916;2.336;2024-01-10T04:24:00;33.55;;;21.30;;
53072;SDS011;38955;48.916;2.336;2024-01-10T04:26:02;34.60;;;21.92;;
53072;SDS011;38955;48.916;2.336;2024-01-10T04:28:05;39.20;;;22.80;;
53072;SDS011;38955;48.916;2.336;2024-01-10T04:30:07;37.28;;;22.20;;
53072;SDS011;38955;48.916;2.336;2024-01-10T04:32:10;30.98;;;19.48;;
53072;SDS011;38955;48.916;2.336;2024-01-10T04:34:12;31.05;;;19.60;;
53072;SDS011;38955;48.916;2.336;2024-01-10T04:36:16;35.20;;;23.00;;
53072;SDS011;38955;48.916;2.336;2024-01-10T04:38:18;33.88;;;22.05;;
53072;SDS011;38955;48.916;2.336;2024-01-10T04:40:20;36.25;;;22.35;;
53072;SDS011;38955;48.916;2.336;2024-01-10T04:42:25;34.20;;;21.25;;
53072;SDS011;38955;48.916;2.336;2024-01-10T04:44:27;33.42;;;21.40;;
53072;SDS011;38955;48.916;2.336;2024-01-10T04:46:29;36.60;;;21.55;;
53072;SDS011;38955;48.916;2.336;2024-01-10T04:48:31;37.22;;;21.80;;
53072;SDS011;38955;48.916;2.336;2024-01-10T04:50:34;40.30;;;22.23;;
53072;SDS011;38955;48.916;2.336;2024-01-10T04:52:38;41.83;;;20.77;;
53072;SDS011;38955;48.916;2.336;2024-01-10T04:54:40;35.97;;;20.58;;
53072;SDS011;38955;48.916;2.336;2024-01-10T04:56:42;34.90;;;22.23;;
53072;SDS011;38955;48.916;2.336;2024-01-10T04:58:44;38.30;;;21.92;;
53072;SDS011;38955;48.916;2.336;2024-01-10T05:00:48;33.60;;;20.10;;
53072;SDS011;38955;48.916;2.336;2024-01-10T05:02:50;29.98;;;20.15;;
53072;SDS011;38955;48.916;2.336;2024-01-10T05:04:55;43.65;;;21.60;;
53072;SDS011;38955;48.916;2.336;2024-01-10T05:06:57;41.22;;;22.10;;
53072;SDS011;38955;48.916;2.336;2024-01-10T05:09:01;37.72;;;21.60;;
53072;SDS011;38955;48.916;2.336;2024-01-10T05:11:03;36.67;;;22.20;;
53072;SDS011;38955;48.916;2.336;2024-01-10T05:13:06;32.50;;;20.38;;
53072;SDS011;38955;48.916;2.336;2024-01-10T05:15:08;35.08;;;19.83;;
53072;SDS011;38955;48.916;2.336;2024-01-10T05:17:11;36.45;;;22.30;;
53072;SDS011;38955;48.916;2.336;2024-01-10T05:19:13;37.67;;;23.10;;
53072;SDS011;38955;48.916;2.336;2024-01-10T05:21:15;33.40;;;21.17;;
53072;SDS011;38955;48.916;2.336;2024-01-10T05:23:17;33.97;;;20.83;;
53072;SDS011;38955;48.916;2.336;2024-01-10T05:25:21;34.78;;;20.67;;
53072;SDS011;38955;48.916;2.336;2024-01-10T05:27:23;36.67;;;22.33;;
53072;SDS011;38955;48.916;2.336;2024-01-10T05:29:25;36.42;;;21.05;;
53072;SDS011;38955;48.916;2.336;2024-01-10T05:31:28;46.63;;;22.48;;
53072;SDS011;38955;48.916;2.336;2024-01-10T05:33:30;72.00;;;23.95;;
53072;SDS011;38955;48.916;2.336;2024-01-10T05:35:33;36.30;;;21.38;;
53072;SDS011;38955;48.916;2.336;2024-01-10T05:37:37;39.95;;;22.27;;
53072;SDS011;38955;48.916;2.336;2024-01-10T05:39:39;33.85;;;20.67;;
53072;SDS011;38955;48.916;2.336;2024-01-10T05:41:42;39.13;;;21.58;;
53072;SDS011;38955;48.916;2.336;2024-01-10T05:43:47;38.42;;;20.92;;
53072;SDS011;38955;48.916;2.336;2024-01-10T05:45:49;42.88;;;21.25;;
53072;SDS011;38955;48.916;2.336;2024-01-10T05:47:51;36.15;;;20.55;;
53072;SDS011;38955;48.916;2.336;2024-01-10T05:49:54;33.90;;;19.58;;
53072;SDS011;38955;48.916;2.336;2024-01-10T05:51:56;30.77;;;18.95;;
53072;SDS011;38955;48.916;2.336;2024-01-10T05:53:59;33.55;;;20.00;;
53072;SDS011;38955;48.916;2.336;2024-01-10T05:56:01;34.50;;;20.77;;
53072;SDS011;38955;48.916;2.336;2024-01-10T05:58:04;37.30;;;19.67;;
53072;SDS011;38955;48.916;2.336;2024-01-10T06:00:07;34.40;;;20.27;;
53072;SDS011;38955;48.916;2.336;2024-01-10T06:02:11;34.05;;;19.27;;
53072;SDS011;38955;48.916;2.336;2024-01-10T06:04:17;35.22;;;19.10;;
53072;SDS011;38955;48.916;2.336;2024-01-10T06:06:19;31.98;;;18.65;;
53072;SDS011;38955;48.916;2.336;2024-01-10T06:08:21;31.20;;;17.83;;
53072;SDS011;38955;48.916;2.336;2024-01-10T06:10:27;32.22;;;18.63;;
53072;SDS011;38955;48.916;2.336;2024-01-10T06:12:30;30.08;;;18.13;;
53072;SDS011;38955;48.916;2.336;2024-01-10T06:14:34;32.10;;;18.92;;
53072;SDS011;38955;48.916;2.336;2024-01-10T06:16:37;32.25;;;18.42;;
53072;SDS011;38955;48.916;2.336;2024-01-10T06:18:39;31.73;;;18.67;;
53072;SDS011;38955;48.916;2.336;2024-01-10T06:20:42;28.40;;;17.95;;
53072;SDS011;38955;48.916;2.336;2024-01-10T06:22:44;32.45;;;18.80;;
53072;SDS011;38955;48.916;2.336;2024-01-10T06:24:48;31.03;;;17.83;;
53072;SDS011;38955;48.916;2.336;2024-01-10T06:26:50;27.15;;;16.50;;
53072;SDS011;38955;48.916;2.336;2024-01-10T06:28:52;30.15;;;18.13;;
53072;SDS011;38955;48.916;2.336;2024-01-10T06:30:55;30.25;;;18.50;;
53072;SDS011;38955;48.916;2.336;2024-01-10T06:32:57;30.48;;;18.00;;
53072;SDS011;38955;48.916;2.336;2024-01-10T06:35:00;29.15;;;17.80;;
53072;SDS011;38955;48.916;2.336;2024-01-10T06:37:03;28.88;;;17.83;;
53072;SDS011;38955;48.916;2.336;2024-01-10T06:39:05;29.23;;;18.42;;
53072;SDS011;38955;48.916;2.336;2024-01-10T06:41:08;30.73;;;18.67;;
53072;SDS011;38955;48.916;2.336;2024-01-10T06:43:10;27.92;;;16.58;;
53072;SDS011;38955;48.916;2.336;2024-01-10T06:45:13;32.05;;;18.33;;
53072;SDS011;38955;48.916;2.336;2024-01-10T06:47:17;27.85;;;17.73;;
53072;SDS011;38955;48.916;2.336;2024-01-10T06:49:19;32.55;;;17.80;;
53072;SDS011;38955;48.916;2.336;2024-01-10T06:51:21;27.17;;;16.85;;
53072;SDS011;38955;48.916;2.336;2024-01-10T06:53:25;25.88;;;17.38;;
53072;SDS011;38955;48.916;2.336;2024-01-10T06:55:27;28.13;;;17.13;;
53072;SDS011;38955;48.916;2.336;2024-01-10T06:57:30;31.63;;;17.55;;
53072;SDS011;38955;48.916;2.336;2024-01-10T06:59:32;31.45;;;16.98;;
53072;SDS011;38955;48.916;2.336;2024-01-10T07:01:34;30.10;;;16.92;;
53072;SDS011;38955;48.916;2.336;2024-01-10T07:03:38;27.35;;;16.30;;
53072;SDS011;38955;48.916;2.336;2024-01-10T07:05:41;26.70;;;15.60;;
53072;SDS011;38955;48.916;2.336;2024-01-10T07:07:46;23.15;;;14.63;;
53072;SDS011;38955;48.916;2.336;2024-01-10T07:09:48;24.95;;;15.85;;
53072;SDS011;38955;48.916;2.336;2024-01-10T07:11:50;30.08;;;16.85;;
53072;SDS011;38955;48.916;2.336;2024-01-10T07:13:52;24.25;;;15.90;;
53072;SDS011;38955;48.916;2.336;2024-01-10T07:15:57;26.67;;;16.15;;
53072;SDS011;38955;48.916;2.336;2024-01-10T07:17:59;28.02;;;15.98;;
53072;SDS011;38955;48.916;2.336;2024-01-10T07:20:02;25.95;;;15.75;;
53072;SDS011;38955;48.916;2.336;2024-01-10T07:22:06;28.85;;;16.02;;
53072;SDS011;38955;48.916;2.336;2024-01-10T07:24:10;24.13;;;12.25;;
53072;SDS011;38955;48.916;2.336;2024-01-10T07:26:13;27.45;;;15.57;;
53072;SDS011;38955;48.916;2.336;2024-01-10T07:30:21;30.63;;;16.52;;
53072;SDS011;38955;48.916;2.336;2024-01-10T07:32:24;26.98;;;16.30;;
53072;SDS011;38955;48.916;2.336;2024-01-10T07:34:27;25.20;;;15.02;;
53072;SDS011;38955;48.916;2.336;2024-01-10T07:36:30;25.02;;;15.73;;
53072;SDS011;38955;48.916;2.336;2024-01-10T07:38:34;24.48;;;15.32;;
53072;SDS011;38955;48.916;2.336;2024-01-10T07:40:37;27.75;;;15.25;;
53072;SDS011;38955;48.916;2.336;2024-01-10T07:42:39;25.85;;;16.35;;
53072;SDS011;38955;48.916;2.336;2024-01-10T07:44:41;28.73;;;16.23;;
53072;SDS011;38955;48.916;2.336;2024-01-10T07:46:46;28.35;;;15.75;;
53072;SDS011;38955;48.916;2.336;2024-01-10T07:48:48;31.05;;;17.42;;
53072;SDS011;38955;48.916;2.336;2024-01-10T07:50:51;30.17;;;16.85;;
53072;SDS011;38955;48.916;2.336;2024-01-10T07:52:57;26.85;;;15.48;;
53072;SDS011;38955;48.916;2.336;2024-01-10T07:54:59;28.35;;;15.85;;
53072;SDS011;38955;48.916;2.336;2024-01-10T07:57:02;22.75;;;15.15;;
53072;SDS011;38955;48.916;2.336;2024-01-10T07:59:05;25.25;;;15.93;;
53072;SDS011;38955;48.916;2.336;2024-01-10T08:01:07;25.38;;;16.15;;
53072;SDS011;38955;48.916;2.336;2024-01-10T08:03:12;31.17;;;16.73;;
53072;SDS011;38955;48.916;2.336;2024-01-10T08:05:14;26.48;;;16.55;;
53072;SDS011;38955;48.916;2.336;2024-01-10T08:07:17;34.38;;;17.92;;
53072;SDS011;38955;48.916;2.336;2024-01-10T08:09:20;26.77;;;15.65;;
53072;SDS011;38955;48.916;2.336;2024-01-10T08:11:22;29.23;;;16.60;;
53072;SDS011;38955;48.916;2.336;2024-01-10T08:13:26;19.70;;;13.23;;
53072;SDS011;38955;48.916;2.336;2024-01-10T08:15:29;32.08;;;16.15;;
53072;SDS011;38955;48.916;2.336;2024-01-10T08:17:31;31.67;;;18.15;;
53072;SDS011;38955;48.916;2.336;2024-01-10T08:19:34;29.85;;;16.95;;
53072;SDS011;38955;48.916;2.336;2024-01-10T08:21:37;35.97;;;18.00;;
53072;SDS011;38955;48.916;2.336;2024-01-10T08:23:39;26.85;;;15.10;;
53072;SDS011;38955;48.916;2.336;2024-01-10T08:25:43;33.42;;;16.63;;
53072;SDS011;38955;48.916;2.336;2024-01-10T08:27:45;29.35;;;16.63;;
53072;SDS011;38955;48.916;2.336;2024-01-10T08:29:47;26.48;;;15.68;;
53072;SDS011;38955;48.916;2.336;2024-01-10T08:31:50;28.63;;;16.00;;
53072;SDS011;38955;48.916;2.336;2024-01-10T08:33:52;24.48;;;15.65;;
53072;SDS011;38955;48.916;2.336;2024-01-10T08:35:54;27.25;;;16.88;;
53072;SDS011;38955;48.916;2.336;2024-01-10T08:37:57;31.75;;;16.15;;
53072;SDS011;38955;48.916;2.336;2024-01-10T08:39:59;26.48;;;15.70;;
53072;SDS011;38955;48.916;2.336;2024-01-10T08:42:09;27.85;;;15.63;;
53072;SDS011;38955;48.916;2.336;2024-01-10T08:44:11;28.30;;;15.98;;
53072;SDS011;38955;48.916;2.336;2024-01-10T08:46:13;28.88;;;15.65;;
53072;SDS011;38955;48.916;2.336;2024-01-10T08:48:16;30.77;;;15.63;;
53072;SDS011;38955;48.916;2.336;2024-01-10T08:50:18;26.67;;;15.60;;
53072;SDS011;38955;48.916;2.336;2024-01-10T08:52:21;31.05;;;15.75;;
53072;SDS011;38955;48.916;2.336;2024-01-10T08:54:23;29.13;;;16.02;;
53072;SDS011;38955;48.916;2.336;2024-01-10T08:56:26;33.75;;;16.13;;
53072;SDS011;38955;48.916;2.336;2024-01-10T08:58:30;26.50;;;15.25;;
53072;SDS011;38955;48.916;2.336;2024-01-10T09:00:32;27.92;;;14.93;;
53072;SDS011;38955;48.916;2.336;2024-01-10T09:02:35;25.20;;;15.10;;
53072;SDS011;38955;48.916;2.336;2024-01-10T09:04:38;24.80;;;14.18;;
53072;SDS011;38955;48.916;2.336;2024-01-10T09:06:40;40.10;;;16.92;;
53072;SDS011;38955;48.916;2.336;2024-01-10T09:08:43;40.47;;;16.80;;
53072;SDS011;38955;48.916;2.336;2024-01-10T09:10:45;52.13;;;16.85;;
53072;SDS011;38955;48.916;2.336;2024-01-10T09:12:47;86.07;;;15.43;;
53072;SDS011;38955;48.916;2.336;2024-01-10T09:14:51;56.00;;;16.52;;
53072;SDS011;38955;48.916;2.336;2024-01-10T09:16:53;29.90;;;15.82;;
53072;SDS011;38955;48.916;2.336;2024-01-10T09:18:56;34.58;;;15.50;;
53072;SDS011;38955;48.916;2.336;2024-01-10T09:21:01;41.05;;;13.63;;
53072;SDS011;38955;48.916;2.336;2024-01-10T09:23:06;27.50;;;12.07;;
53072;SDS011;38955;48.916;2.336;2024-01-10T09:25:08;29.38;;;14.23;;
53072;SDS011;38955;48.916;2.336;2024-01-10T09:27:10;31.20;;;15.05;;
53072;SDS011;38955;48.916;2.336;2024-01-10T09:29:13;32.10;;;14.25;;
53072;SDS011;38955;48.916;2.336;2024-01-10T09:31:17;25.27;;;14.98;;
53072;SDS011;38955;48.916;2.336;2024-01-10T09:33:20;24.60;;;10.77;;
53072;SDS011;38955;48.916;2.336;2024-01-10T09:35:22;32.78;;;14.90;;
53072;SDS011;38955;48.916;2.336;2024-01-10T09:37:26;31.93;;;16.33;;
53072;SDS011;38955;48.916;2.336;2024-01-10T09:39:28;46.55;;;15.95;;
53072;SDS011;38955;48.916;2.336;2024-01-10T09:41:31;26.05;;;15.07;;
53072;SDS011;38955;48.916;2.336;2024-01-10T09:43:39;25.27;;;15.50;;
53072;SDS011;38955;48.916;2.336;2024-01-10T09:45:42;23.48;;;14.07;;
53072;SDS011;38955;48.916;2.336;2024-01-10T09:47:51;28.35;;;14.10;;
53072;SDS011;38955;48.916;2.336;2024-01-10T09:49:56;42.17;;;15.70;;
53072;SDS011;38955;48.916;2.336;2024-01-10T09:51:59;28.30;;;14.43;;
53072;SDS011;38955;48.916;2.336;2024-01-10T09:54:06;26.27;;;14.80;;
53072;SDS011;38955;48.916;2.336;2024-01-10T09:56:08;24.48;;;13.82;;
53072;SDS011;38955;48.916;2.336;2024-01-10T09:58:11;28.42;;;14.80;;
53072;SDS011;38955;48.916;2.336;2024-01-10T10:00:14;29.63;;;15.63;;
53072;SDS011;38955;48.916;2.336;2024-01-10T10:02:17;23.88;;;14.38;;
53072;SDS011;38955;48.916;2.336;2024-01-10T10:04:23;25.77;;;15.20;;
53072;SDS011;38955;48.916;2.336;2024-01-10T10:06:28;22.63;;;14.45;;
53072;SDS011;38955;48.916;2.336;2024-01-10T10:08:31;24.02;;;14.27;;
53072;SDS011;38955;48.916;2.336;2024-01-10T10:10:33;30.83;;;16.15;;
53072;SDS011;38955;48.916;2.336;2024-01-10T10:12:41;23.55;;;14.18;;
53072;SDS011;38955;48.916;2.336;2024-01-10T10:14:44;22.75;;;14.35;;
53072;SDS011;38955;48.916;2.336;2024-01-10T10:16:46;24.02;;;14.93;;
53072;SDS011;38955;48.916;2.336;2024-01-10T10:18:48;24.30;;;14.30;;
53072;SDS011;38955;48.916;2.336;2024-01-10T10:23:15;21.15;;;13.52;;
53072;SDS011;38955;48.916;2.336;2024-01-10T10:25:21;25.42;;;14.95;;
53072;SDS011;38955;48.916;2.336;2024-01-10T10:27:23;31.02;;;15.07;;
53072;SDS011;38955;48.916;2.336;2024-01-10T10:29:25;30.05;;;15.25;;
53072;SDS011;38955;48.916;2.336;2024-01-10T10:31:27;25.98;;;15.60;;
53072;SDS011;38955;48.916;2.336;2024-01-10T10:33:32;28.80;;;14.95;;
53072;SDS011;38955;48.916;2.336;2024-01-10T10:35:40;24.33;;;14.38;;
53072;SDS011;38955;48.916;2.336;2024-01-10T10:37:50;22.60;;;14.95;;
53072;SDS011;38955;48.916;2.336;2024-01-10T10:39:53;22.55;;;13.98;;
53072;SDS011;38955;48.916;2.336;2024-01-10T10:41:55;22.00;;;14.48;;
53072;SDS011;38955;48.916;2.336;2024-01-10T10:43:59;25.17;;;14.27;;
53072;SDS011;38955;48.916;2.336;2024-01-10T10:46:04;27.02;;;13.85;;
53072;SDS011;38955;48.916;2.336;2024-01-10T10:48:08;31.20;;;14.02;;
53072;SDS011;38955;48.916;2.336;2024-01-10T10:50:18;28.98;;;14.88;;
53072;SDS011;38955;48.916;2.336;2024-01-10T10:52:22;24.25;;;14.73;;
53072;SDS011;38955;48.916;2.336;2024-01-10T10:54:26;30.52;;;14.55;;
53072;SDS011;38955;48.916;2.336;2024-01-10T10:56:32;29.05;;;14.50;;
53072;SDS011;38955;48.916;2.336;2024-01-10T10:58:38;26.75;;;15.43;;
53072;SDS011;38955;48.916;2.336;2024-01-10T11:00:41;23.25;;;14.85;;
53072;SDS011;38955;48.916;2.336;2024-01-10T11:02:45;26.60;;;15.27;;
53072;SDS011;38955;48.916;2.336;2024-01-10T11:04:47;24.13;;;13.38;;
53072;SDS011;38955;48.916;2.336;2024-01-10T11:06:50;20.80;;;13.60;;
53072;SDS011;38955;48.916;2.336;2024-01-10T11:08:52;25.73;;;13.73;;
53072;SDS011;38955;48.916;2.336;2024-01-10T11:10:59;25.55;;;14.40;;
53072;SDS011;38955;48.916;2.336;2024-01-10T11:13:06;26.88;;;15.32;;
53072;SDS011;38955;48.916;2.336;2024-01-10T11:15:35;28.08;;;15.73;;
53072;SDS011;38955;48.916;2.336;2024-01-10T11:18:08;22.23;;;14.43;;
53072;SDS011;38955;48.916;2.336;2024-01-10T11:20:30;23.45;;;14.70;;
53072;SDS011;38955;48.916;2.336;2024-01-10T11:22:56;23.42;;;14.50;;
53072;SDS011;38955;48.916;2.336;2024-01-10T11:25:18;25.60;;;13.15;;
53072;SDS011;38955;48.916;2.336;2024-01-10T11:27:22;25.70;;;14.40;;
53072;SDS011;38955;48.916;2.336;2024-01-10T11:29:24;24.10;;;14.45;;
53072;SDS011;38955;48.916;2.336;2024-01-10T11:31:31;24.33;;;13.85;;
53072;SDS011;38955;48.916;2.336;2024-01-10T11:33:36;29.80;;;13.52;;
53072;SDS011;38955;48.916;2.336;2024-01-10T11:38:09;28.73;;;14.50;;
53072;SDS011;38955;48.916;2.336;2024-01-10T11:40:23;23.35;;;13.95;;
53072;SDS011;38955;48.916;2.336;2024-01-10T11:42:53;26.58;;;14.30;;
53072;SDS011;38955;48.916;2.336;2024-01-10T11:44:55;21.05;;;13.65;;
53072;SDS011;38955;48.916;2.336;2024-01-10T11:46:58;31.25;;;15.07;;
53072;SDS011;38955;48.916;2.336;2024-01-10T11:49:01;28.67;;;13.30;;
53072;SDS011;38955;48.916;2.336;2024-01-10T11:51:03;23.15;;;13.98;;
53072;SDS011;38955;48.916;2.336;2024-01-10T11:53:05;22.13;;;12.23;;
53072;SDS011;38955;48.916;2.336;2024-01-10T11:55:08;26.15;;;14.07;;
53072;SDS011;38955;48.916;2.336;2024-01-10T11:57:10;23.30;;;13.57;;
53072;SDS011;38955;48.916;2.336;2024-01-10T11:59:15;35.20;;;13.13;;
53072;SDS011;38955;48.916;2.336;2024-01-10T12:01:20;22.83;;;13.63;;
53072;SDS011;38955;48.916;2.336;2024-01-10T12:03:24;25.73;;;13.95;;
53072;SDS011;38955;48.916;2.336;2024-01-10T12:05:33;23.83;;;13.93;;
53072;SDS011;38955;48.916;2.336;2024-01-10T12:07:40;23.58;;;13.80;;